Time;durP1;ratioP1;P1;durP2;ratioP2;P2;SDS_P1;SDS_P2;PMS_P1;PMS_P2;Temp;Humidity;BMP_temperature;BMP_pressure;BME280_temperature;BME280_humidity;BME280_pressure;Samples;Min_cycle;Max_cycle;Signal;HPM_P1;HPM_P2
2021/03/06 00:01:00;;;;;;;10.18;7.40;;;154.20;1843.20;;;;;;5035783;28;20087;-71
2021/03/06 00:03:27;;;;;;;10.98;7.88;;;154.20;1843.20;;;;;;5034434;28;20022;-71
2021/03/06 00:05:56;;;;;;;11.75;7.90;;;154.20;1817.60;;;;;;5035601;28;20025;-71
2021/03/06 00:08:25;;;;;;;10.18;7.32;;;154.10;1843.20;;;;;;5035517;28;20134;-71
2021/03/06 00:10:52;;;;;;;11.32;7.60;;;154.20;1817.60;;;;;;5035230;28;20026;-71
2021/03/06 00:13:18;;;;;;;12.23;8.00;;;154.20;1843.20;;;;;;5035415;28;20037;-71
2021/03/06 00:15:45;;;;;;;11.57;7.55;;;154.10;1843.20;;;;;;5035504;28;20037;-71
2021/03/06 00:18:11;;;;;;;13.43;8.48;;;154.10;1843.20;;;;;;5035326;28;20022;-71
2021/03/06 00:20:37;;;;;;;14.20;9.20;;;154.10;1868.80;;;;;;5035396;28;20035;-84
2021/03/06 00:23:03;;;;;;;13.52;8.57;;;154.00;1868.80;;;;;;5035124;28;20048;-71
2021/03/06 00:25:29;;;;;;;13.95;9.02;;;154.00;1868.80;;;;;;5035144;28;20033;-71
2021/03/06 00:27:54;;;;;;;14.93;9.25;;;154.00;1868.80;;;;;;5035200;28;20475;-72
2021/03/06 00:30:21;;;;;;;15.32;9.80;;;154.00;1817.60;;;;;;5035069;28;20061;-71
2021/03/06 00:32:47;;;;;;;15.02;8.98;;;154.10;1817.60;;;;;;5035298;28;20462;-71
2021/03/06 00:35:14;;;;;;;16.23;9.10;;;154.10;1843.20;;;;;;5035120;28;20040;-84
2021/03/06 00:37:40;;;;;;;14.27;8.55;;;154.00;1843.20;;;;;;5035135;28;20022;-73
2021/03/06 00:40:08;;;;;;;12.65;8.13;;;154.10;1792.00;;;;;;5034904;28;20026;-72
2021/03/06 00:42:34;;;;;;;13.85;8.52;;;154.20;1792.00;;;;;;5035100;28;20025;-85
2021/03/06 00:45:00;;;;;;;13.30;8.70;;;154.20;1792.00;;;;;;5034888;28;20029;-71
2021/03/06 00:47:26;;;;;;;12.05;7.90;;;154.10;1817.60;;;;;;5033616;28;20029;-85
2021/03/06 00:49:52;;;;;;;11.82;7.85;;;154.20;1817.60;;;;;;5033427;28;20025;-71
2021/03/06 00:52:18;;;;;;;12.75;7.07;;;154.30;1792.00;;;;;;5034490;28;20038;-72
2021/03/06 00:54:44;;;;;;;13.80;7.93;;;154.30;1817.60;;;;;;5033652;28;20041;-71
2021/03/06 00:57:10;;;;;;;10.38;7.53;;;154.20;1843.20;;;;;;5034694;28;20032;-72
2021/03/06 00:59:36;;;;;;;12.75;7.78;;;154.00;1868.80;;;;;;5034697;28;20036;-71
2021/03/06 01:02:02;;;;;;;12.20;7.60;;;153.90;1843.20;;;;;;5034617;28;20025;-71
2021/03/06 01:04:28;;;;;;;11.38;8.15;;;153.90;1817.60;;;;;;5034377;28;20095;-71
2021/03/06 01:06:54;;;;;;;13.35;8.35;;;153.90;1843.20;;;;;;5034309;28;20467;-71
2021/03/06 01:09:20;;;;;;;13.38;8.23;;;153.90;1843.20;;;;;;5034712;28;20044;-77
2021/03/06 01:11:45;;;;;;;11.65;8.32;;;153.90;1843.20;;;;;;5034590;28;20026;-71
2021/03/06 01:14:11;;;;;;;12.60;8.32;;;153.90;1817.60;;;;;;5034523;28;20041;-71
2021/03/06 01:16:37;;;;;;;11.30;7.78;;;153.90;1843.20;;;;;;5034199;28;20045;-71
2021/03/06 01:19:03;;;;;;;12.38;8.18;;;153.90;1843.20;;;;;;5034091;28;20108;-71
2021/03/06 01:21:29;;;;;;;13.18;8.52;;;153.90;1843.20;;;;;;5033987;28;20033;-72
2021/03/06 01:23:55;;;;;;;13.40;8.63;;;153.90;1792.00;;;;;;5034096;28;20383;-71
2021/03/06 01:26:21;;;;;;;14.23;9.13;;;153.90;1843.20;;;;;;5033886;28;20029;-71
2021/03/06 01:28:47;;;;;;;12.82;9.82;;;153.90;1817.60;;;;;;5034169;28;20033;-71
2021/03/06 01:31:13;;;;;;;15.95;10.40;;;153.80;1817.60;;;;;;5033954;28;20052;-71
2021/03/06 01:33:39;;;;;;;12.80;9.13;;;153.70;1817.60;;;;;;5033779;28;20112;-71
2021/03/06 01:36:05;;;;;;;14.25;9.65;;;153.80;1792.00;;;;;;5033626;28;20104;-71
2021/03/06 01:38:31;;;;;;;13.75;9.38;;;153.70;1766.40;;;;;;5032472;28;20466;-72
2021/03/06 01:40:57;;;;;;;16.65;9.63;;;153.60;1766.40;;;;;;5034078;28;20032;-71
2021/03/06 01:43:23;;;;;;;13.88;8.98;;;128.80;1766.40;;;;;;5034164;28;20409;-71
2021/03/06 01:45:49;;;;;;;11.20;8.90;;;128.70;1766.40;;;;;;5033984;28;20107;-71
2021/03/06 01:48:15;;;;;;;12.30;8.82;;;128.60;1766.40;;;;;;5033967;28;20052;-84
2021/03/06 01:50:43;;;;;;;12.98;8.38;;;128.40;1766.40;;;;;;5034022;28;20029;-72
2021/03/06 01:53:11;;;;;;;14.13;8.20;;;128.40;1766.40;;;;;;5033552;28;20398;-71
2021/03/06 01:55:40;;;;;;;12.55;7.68;;;128.10;1792.00;;;;;;5034016;28;20053;-87
2021/03/06 01:58:06;;;;;;;12.25;7.95;;;128.20;1766.40;;;;;;5033786;28;20036;-71
2021/03/06 02:00:33;;;;;;;12.82;7.55;;;128.20;1766.40;;;;;;5032561;28;20474;-71
2021/03/06 02:03:00;;;;;;;14.23;8.02;;;128.20;1740.80;;;;;;5033717;28;20088;-87
2021/03/06 02:05:26;;;;;;;11.93;7.15;;;128.10;1740.80;;;;;;5033355;28;20022;-71
2021/03/06 02:07:53;;;;;;;11.75;7.40;;;128.00;1740.80;;;;;;5033677;28;20026;-86
2021/03/06 02:10:26;;;;;;;10.48;7.13;;;128.00;1740.80;;;;;;5033461;28;20064;-76
2021/03/06 02:13:01;;;;;;;12.23;6.43;;;128.10;1715.20;;;;;;5033537;28;20025;-71
2021/03/06 02:15:43;;;;;;;12.88;7.55;;;128.00;1715.20;;;;;;5033800;28;20045;-71
2021/03/06 02:18:32;;;;;;;12.00;7.38;;;103.30;1689.60;;;;;;5033606;28;20029;-71
2021/03/06 02:21:19;;;;;;;11.70;7.72;;;103.30;1689.60;;;;;;5033748;28;20028;-71
2021/03/06 02:24:11;;;;;;;12.25;7.45;;;103.20;1715.20;;;;;;5033390;28;20105;-71
2021/03/06 02:26:55;;;;;;;11.05;7.05;;;103.20;1689.60;;;;;;5034251;28;20018;-86
2021/03/06 02:29:39;;;;;;;12.82;7.95;;;103.20;1689.60;;;;;;5038694;28;20029;-72
2021/03/06 02:32:17;;;;;;;11.63;7.60;;;103.20;1715.20;;;;;;5040161;28;20056;-86
2021/03/06 02:35:18;;;;;;;12.00;7.15;;;103.30;1689.60;;;;;;5048737;28;20045;-71
2021/03/06 02:37:52;;;;;;;13.38;7.20;;;103.30;1689.60;;;;;;5050300;28;20052;-71
2021/03/06 02:40:19;;;;;;;13.52;7.80;;;103.30;1689.60;;;;;;5053222;28;20104;-71
2021/03/06 02:42:46;;;;;;;9.88;6.13;;;103.30;1664.00;;;;;;5053113;28;20033;-70
2021/03/06 02:45:13;;;;;;;11.45;7.28;;;103.30;1664.00;;;;;;5050785;28;20052;-71
2021/03/06 02:47:39;;;;;;;9.98;6.78;;;103.30;1664.00;;;;;;5033220;28;20025;-86
2021/03/06 02:50:08;;;;;;;9.88;7.63;;;103.20;1689.60;;;;;;5033294;28;20036;-71
2021/03/06 02:52:34;;;;;;;12.77;7.35;;;103.20;1689.60;;;;;;5032976;28;20048;-71
2021/03/06 02:55:00;;;;;;;10.80;6.88;;;103.20;1689.60;;;;;;5033354;28;20045;-71
2021/03/06 02:57:32;;;;;;;10.55;7.15;;;103.20;1664.00;;;;;;5033413;28;20026;-70
2021/03/06 03:00:09;;;;;;;10.98;6.60;;;103.10;1664.00;;;;;;5033374;28;20094;-71
2021/03/06 03:03:32;;;;;;;11.23;6.93;;;103.10;1689.60;;;;;;5032952;28;20056;-71
2021/03/06 03:06:07;;;;;;;15.25;7.43;;;103.00;1689.60;;;;;;5011215;28;20094;-71
2021/03/06 03:08:44;;;;;;;10.90;6.30;;;102.90;1689.60;;;;;;5029902;28;20041;-71
2021/03/06 03:11:13;;;;;;;11.63;5.75;;;103.00;1689.60;;;;;;5034341;28;20513;-85
2021/03/06 03:13:49;;;;;;;11.57;7.20;;;103.00;1689.60;;;;;;5048314;28;20497;-85
2021/03/06 03:16:20;;;;;;;14.25;7.63;;;103.00;1715.20;;;;;;5033113;28;20101;-73
2021/03/06 03:19:26;;;;;;;10.95;7.22;;;102.90;1664.00;;;;;;5036273;28;20057;-71
2021/03/06 03:21:55;;;;;;;13.57;7.72;;;102.90;1689.60;;;;;;5033333;28;20490;-71
2021/03/06 03:24:23;;;;;;;11.70;7.57;;;102.90;1689.60;;;;;;5036419;28;20031;-72
2021/03/06 03:26:50;;;;;;;11.18;6.95;;;102.90;1689.60;;;;;;5036230;28;20028;-86
2021/03/06 03:29:17;;;;;;;12.73;7.00;;;102.90;1689.60;;;;;;5036295;28;20025;-77
2021/03/06 03:31:49;;;;;;;14.13;7.77;;;102.90;1715.20;;;;;;5036279;28;20025;-71
2021/03/06 03:34:18;;;;;;;12.10;7.23;;;102.90;1689.60;;;;;;5036114;28;20100;-86
2021/03/06 03:36:45;;;;;;;10.30;7.27;;;102.80;1715.20;;;;;;5036286;28;20057;-71
2021/03/06 03:39:11;;;;;;;14.10;7.23;;;102.70;1689.60;;;;;;5036140;28;20021;-71
2021/03/06 03:41:38;;;;;;;11.23;7.40;;;102.80;1715.20;;;;;;5036120;28;20410;-83
2021/03/06 03:44:06;;;;;;;25.20;13.93;;;102.90;1689.60;;;;;;5035990;28;20044;-70
2021/03/06 03:46:33;;;;;;;13.33;8.40;;;102.90;1689.60;;;;;;5035799;28;20386;-70
2021/03/06 03:49:01;;;;;;;11.00;6.90;;;102.80;1715.20;;;;;;5034792;28;20029;-71
2021/03/06 03:51:28;;;;;;;17.90;8.63;;;102.80;1689.60;;;;;;5036185;28;20425;-87
2021/03/06 03:53:53;;;;;;;19.77;8.67;;;102.80;1689.60;;;;;;5035649;28;20049;-87
2021/03/06 03:56:19;;;;;;;18.58;12.00;;;102.80;1689.60;;;;;;5035579;28;20029;-71
2021/03/06 03:58:46;;;;;;;12.60;7.88;;;102.90;1689.60;;;;;;5035804;28;20022;-71
2021/03/06 04:01:12;;;;;;;16.88;8.45;;;102.80;1689.60;;;;;;5035561;28;20113;-71
2021/03/06 04:03:39;;;;;;;15.85;8.68;;;102.80;1689.60;;;;;;5035773;28;20045;-72
2021/03/06 04:06:06;;;;;;;13.33;8.33;;;102.80;1715.20;;;;;;5035793;28;20048;-71
2021/03/06 04:08:32;;;;;;;14.75;8.68;;;102.80;1689.60;;;;;;5035590;28;20026;-70
2021/03/06 04:10:58;;;;;;;13.55;7.95;;;102.80;1689.60;;;;;;5035695;28;20493;-71
2021/03/06 04:13:24;;;;;;;17.42;9.85;;;102.80;1664.00;;;;;;5035371;28;20057;-86
2021/03/06 04:15:50;;;;;;;13.65;10.48;;;102.80;1689.60;;;;;;5035343;28;20433;-71
2021/03/06 04:18:16;;;;;;;18.50;11.00;;;102.80;1689.60;;;;;;5035645;28;20029;-73
2021/03/06 04:20:42;;;;;;;23.10;10.55;;;102.80;1689.60;;;;;;5035355;28;20112;-71
2021/03/06 04:23:07;;;;;;;21.50;10.02;;;102.90;1664.00;;;;;;5035576;28;20028;-71
2021/03/06 04:25:33;;;;;;;21.33;9.70;;;102.80;1689.60;;;;;;5035281;28;20489;-71
2021/03/06 04:27:59;;;;;;;16.27;9.20;;;102.80;1689.60;;;;;;5035221;28;20192;-70
2021/03/06 04:30:25;;;;;;;15.83;9.60;;;102.80;1689.60;;;;;;5035145;28;20032;-87
2021/03/06 04:32:52;;;;;;;21.70;11.20;;;102.80;1664.00;;;;;;5035050;28;20390;-86
2021/03/06 04:35:18;;;;;;;22.63;11.13;;;102.80;1689.60;;;;;;5033694;28;20041;-71
2021/03/06 04:37:44;;;;;;;30.25;16.63;;;102.90;1664.00;;;;;;5035060;28;20025;-71
2021/03/06 04:40:12;;;;;;;28.35;14.75;;;102.90;1689.60;;;;;;5034829;28;20040;-71
2021/03/06 04:42:38;;;;;;;28.45;14.75;;;102.90;1689.60;;;;;;5034935;28;20492;-87
2021/03/06 04:45:07;;;;;;;34.00;15.37;;;102.90;1664.00;;;;;;5034871;28;20425;-71
2021/03/06 04:47:33;;;;;;;43.22;23.90;;;102.90;1664.00;;;;;;5034884;28;20470;-86
2021/03/06 04:49:59;;;;;;;28.73;17.30;;;103.00;1664.00;;;;;;5034881;28;20031;-71
2021/03/06 04:52:25;;;;;;;24.20;12.27;;;103.00;1664.00;;;;;;5034505;28;20105;-71
2021/03/06 04:54:51;;;;;;;17.83;11.45;;;103.00;1664.00;;;;;;5035242;28;20033;-72
2021/03/06 04:57:16;;;;;;;17.98;9.18;;;103.00;1664.00;;;;;;5034717;28;20089;-86
2021/03/06 04:59:43;;;;;;;21.33;10.87;;;103.00;1664.00;;;;;;5034602;28;20036;-71
2021/03/06 05:02:09;;;;;;;22.50;11.68;;;103.00;1664.00;;;;;;5034548;28;20022;-86
2021/03/06 05:04:35;;;;;;;21.25;11.50;;;103.10;1664.00;;;;;;5034748;28;20466;-86
2021/03/06 05:07:01;;;;;;;19.45;10.45;;;103.10;1689.60;;;;;;5034323;28;20028;-71
2021/03/06 05:09:27;;;;;;;16.98;9.80;;;103.10;1664.00;;;;;;5033192;28;20025;-71
2021/03/06 05:11:53;;;;;;;20.85;10.27;;;103.00;1664.00;;;;;;5034298;28;20024;-84
2021/03/06 05:14:20;;;;;;;17.92;9.25;;;103.00;1664.00;;;;;;5034588;28;20041;-72
2021/03/06 05:16:46;;;;;;;15.32;8.98;;;103.10;1664.00;;;;;;5034154;28;20045;-70
2021/03/06 05:19:12;;;;;;;15.27;7.85;;;103.00;1689.60;;;;;;5034256;28;20123;-85
2021/03/06 05:21:38;;;;;;;20.20;8.82;;;102.90;1689.60;;;;;;5034044;28;20022;-71
2021/03/06 05:24:05;;;;;;;21.73;11.00;;;102.90;1689.60;;;;;;5033902;28;20017;-71
2021/03/06 05:26:31;;;;;;;16.30;9.70;;;102.90;1715.20;;;;;;5033916;28;20025;-70
2021/03/06 05:28:57;;;;;;;13.88;9.32;;;102.90;1715.20;;;;;;5033964;28;20025;-71
2021/03/06 05:31:23;;;;;;;17.27;10.30;;;102.90;1715.20;;;;;;5032641;28;20113;-71
2021/03/06 05:33:49;;;;;;;22.40;11.57;;;102.80;1715.20;;;;;;5037298;28;20108;-71
2021/03/06 05:36:15;;;;;;;58.25;24.42;;;102.80;1715.20;;;;;;5042493;28;20440;-71
2021/03/06 05:38:41;;;;;;;21.85;10.68;;;102.90;1715.20;;;;;;5054073;28;20017;-71
2021/03/06 05:41:08;;;;;;;21.07;12.03;;;102.70;1740.80;;;;;;5053258;28;20017;-71
2021/03/06 05:43:34;;;;;;;22.63;11.57;;;102.70;1740.80;;;;;;5053056;28;20025;-86
2021/03/06 05:46:00;;;;;;;31.55;16.55;;;102.70;1740.80;;;;;;5053946;28;20031;-71
2021/03/06 05:48:26;;;;;;;30.37;16.07;;;102.80;1740.80;;;;;;5053685;28;20111;-71
2021/03/06 05:50:53;;;;;;;36.83;19.60;;;102.90;1689.60;;;;;;5054125;28;20463;-85
2021/03/06 05:53:21;;;;;;;33.63;18.70;;;103.00;1689.60;;;;;;5053291;28;20072;-85
2021/03/06 05:55:51;;;;;;;15.32;10.32;;;103.10;1664.00;;;;;;5053671;28;20040;-71
2021/03/06 05:58:20;;;;;;;31.67;17.65;;;103.10;1664.00;;;;;;5052532;28;20033;-86
2021/03/06 06:00:46;;;;;;;25.02;12.27;;;103.10;1638.40;;;;;;5053547;28;20021;-86
2021/03/06 06:03:14;;;;;;;32.70;15.18;;;103.10;1638.40;;;;;;5053642;28;20108;-71
2021/03/06 06:05:40;;;;;;;34.50;18.63;;;103.00;1664.00;;;;;;5053481;28;20029;-71
2021/03/06 06:08:08;;;;;;;27.02;13.80;;;103.00;1664.00;;;;;;5053532;28;20021;-71
2021/03/06 06:10:34;;;;;;;21.92;11.40;;;103.10;1638.40;;;;;;5053423;28;20060;-71
2021/03/06 06:13:00;;;;;;;21.42;13.13;;;103.00;1664.00;;;;;;5053638;28;20029;-71
2021/03/06 06:15:27;;;;;;;19.33;11.13;;;103.00;1664.00;;;;;;5053376;28;20037;-71
2021/03/06 06:17:54;;;;;;;21.80;12.43;;;102.90;1689.60;;;;;;5053357;28;20079;-71
2021/03/06 06:20:22;;;;;;;18.87;9.33;;;102.90;1715.20;;;;;;5053360;28;20036;-85
2021/03/06 06:23:07;;;;;;;20.70;12.07;;;102.80;1715.20;;;;;;5053426;28;20032;-71
2021/03/06 06:25:33;;;;;;;23.88;13.55;;;102.90;1715.20;;;;;;5053375;28;20474;-72
2021/03/06 06:28:00;;;;;;;23.23;11.85;;;102.70;1740.80;;;;;;5053546;28;20104;-70
2021/03/06 06:30:27;;;;;;;17.37;10.93;;;102.70;1740.80;;;;;;5049890;28;20486;-86
2021/03/06 06:32:53;;;;;;;28.55;15.73;;;102.70;1740.80;;;;;;5044256;28;20022;-72
2021/03/06 06:35:19;;;;;;;27.85;14.27;;;102.70;1740.80;;;;;;5033624;28;20038;-85
2021/03/06 06:37:56;;;;;;;22.13;13.13;;;102.60;1740.80;;;;;;5032035;28;20507;-86
2021/03/06 06:40:24;;;;;;;28.25;14.85;;;102.80;1715.20;;;;;;5033223;28;20028;-71
2021/03/06 06:42:50;;;;;;;29.30;14.60;;;102.80;1740.80;;;;;;5033363;28;20029;-76
2021/03/06 06:45:16;;;;;;;22.77;12.48;;;102.70;1715.20;;;;;;5033419;28;20029;-71
2021/03/06 06:47:45;;;;;;;14.60;9.67;;;102.70;1715.20;;;;;;5033013;28;20378;-71
2021/03/06 06:50:13;;;;;;;24.30;11.87;;;102.80;1715.20;;;;;;5036202;28;20111;-87
2021/03/06 06:52:42;;;;;;;23.67;11.07;;;102.80;1715.20;;;;;;5043219;28;20127;-71
2021/03/06 06:55:11;;;;;;;19.00;13.60;;;102.90;1715.20;;;;;;5036777;28;20037;-70
2021/03/06 06:57:51;;;;;;;139.27;102.45;;;103.00;1715.20;;;;;;5035709;28;20021;-71
2021/03/06 07:00:18;;;;;;;44.55;33.92;;;103.00;1715.20;;;;;;5036773;28;20037;-71
2021/03/06 07:02:59;;;;;;;22.23;15.60;;;103.00;1689.60;;;;;;5037077;28;20030;-71
2021/03/06 07:05:31;;;;;;;46.25;39.65;;;103.20;1689.60;;;;;;5041018;28;20382;-71
2021/03/06 07:08:03;;;;;;;31.13;25.67;;;103.30;1715.20;;;;;;5045167;28;20017;-71
2021/03/06 07:10:38;;;;;;;25.60;16.92;;;128.10;1689.60;;;;;;5036763;28;20029;-70
2021/03/06 07:13:06;;;;;;;32.78;20.52;;;128.10;1664.00;;;;;;5036443;28;20534;-71
2021/03/06 07:15:33;;;;;;;29.05;15.95;;;128.40;1664.00;;;;;;5036232;28;20030;-71
2021/03/06 07:18:01;;;;;;;47.55;26.08;;;128.70;1612.80;;;;;;5037094;28;20028;-71
2021/03/06 07:20:31;;;;;;;59.97;29.85;;;128.70;1638.40;;;;;;5036584;28;20022;-70
2021/03/06 07:23:11;;;;;;;48.05;29.60;;;153.60;1612.80;;;;;;5036268;28;20013;-71
2021/03/06 07:25:37;;;;;;;51.35;29.67;;;179.70;1484.80;;;;;;5036270;28;20022;-71
2021/03/06 07:28:04;;;;;;;46.55;28.25;;;230.70;1280.00;;;;;;5036064;28;20048;-70
2021/03/06 07:30:31;;;;;;;21.45;13.05;;;256.80;1152.00;;;;;;5036072;28;20032;-71
2021/03/06 07:33:00;;;;;;;20.40;12.05;;;281.80;1100.80;;;;;;5036047;28;20026;-71
2021/03/06 07:35:26;;;;;;;67.88;38.35;;;256.50;1152.00;;;;;;5035933;28;20030;-71
2021/03/06 07:37:58;;;;;;;27.75;17.85;;;256.60;1177.60;;;;;;5036044;28;20022;-71
2021/03/06 07:40:30;;;;;;;36.70;20.98;;;256.10;1203.20;;;;;;5035911;28;20025;-71
2021/03/06 07:43:01;;;;;;;61.20;37.47;;;231.10;1203.20;;;;;;5036257;28;20018;-71
2021/03/06 07:45:28;;;;;;;29.98;17.27;;;231.10;1203.20;;;;;;5036112;28;20018;-71
2021/03/06 07:48:11;;;;;;;20.83;11.38;;;256.00;1177.60;;;;;;5035972;28;20017;-84
2021/03/06 07:50:44;;;;;;;19.67;13.40;;;256.00;1126.40;;;;;;5036063;28;20025;-71
2021/03/06 07:53:12;;;;;;;26.27;17.03;;;307.20;1049.60;;;;;;5035958;28;20521;-71
2021/03/06 07:55:39;;;;;;;26.15;20.30;;;308.00;947.20;;;;;;5036379;28;20117;-71
2021/03/06 07:58:14;;;;;;;25.15;15.70;;;307.70;972.80;;;;;;5036135;28;20068;-85
2021/03/06 08:00:57;;;;;;;33.95;22.52;;;307.30;998.40;;;;;;5035778;28;20025;-71
2021/03/06 08:03:34;;;;;;;40.13;29.67;;;282.50;1024.00;;;;;;5035282;28;20112;-71
2021/03/06 08:06:19;;;;;;;44.63;30.17;;;282.50;972.80;;;;;;5035700;28;20029;-71
2021/03/06 08:08:45;;;;;;;21.42;14.80;;;308.00;947.20;;;;;;5035925;28;20041;-71
2021/03/06 08:11:34;;;;;;;19.45;12.23;;;333.20;844.80;;;;;;5035803;28;20022;-71
2021/03/06 08:14:05;;;;;;;21.55;12.60;;;333.40;870.40;;;;;;5035506;28;20501;-71
2021/03/06 08:16:32;;;;;;;19.05;10.90;;;333.40;870.40;;;;;;5035429;28;20104;-71
2021/03/06 08:19:08;;;;;;;12.55;7.70;;;358.60;819.20;;;;;;5035264;28;20022;-70
2021/03/06 08:21:36;;;;;;;15.98;8.35;;;333.70;844.80;;;;;;5035482;28;20041;-71
2021/03/06 08:24:21;;;;;;;9.07;6.65;;;358.50;819.20;;;;;;5034123;28;20390;-71
2021/03/06 08:27:02;;;;;;;14.35;6.50;;;333.60;793.60;;;;;;5035649;28;20037;-85
2021/03/06 08:29:28;;;;;;;13.90;7.05;;;333.70;844.80;;;;;;5045449;28;20024;-71
2021/03/06 08:32:00;;;;;;;12.63;7.90;;;333.40;819.20;;;;;;5039856;28;20037;-71
2021/03/06 08:34:30;;;;;;;9.27;7.00;;;333.00;844.80;;;;;;5035105;28;20033;-71
2021/03/06 08:37:21;;;;;;;16.27;7.85;;;333.10;844.80;;;;;;5035077;28;20056;-71
2021/03/06 08:40:12;;;;;;;17.27;9.23;;;333.00;793.60;;;;;;5035018;28;20026;-71
2021/03/06 08:42:43;;;;;;;26.63;11.43;;;333.10;819.20;;;;;;5034927;28;20024;-72
2021/03/06 08:45:14;;;;;;;34.08;20.58;;;333.10;870.40;;;;;;5035007;28;20095;-73
2021/03/06 08:47:46;;;;;;;29.80;17.45;;;333.30;844.80;;;;;;5034821;28;20022;-76
2021/03/06 08:50:18;;;;;;;22.67;11.50;;;333.10;844.80;;;;;;5034808;28;20029;-71
2021/03/06 08:53:07;;;;;;;67.60;27.00;;;307.80;870.40;;;;;;5034704;28;20383;-71
2021/03/06 08:55:38;;;;;;;76.20;42.13;;;307.50;896.00;;;;;;5034636;28;20037;-71
2021/03/06 08:58:05;;;;;;;31.92;20.27;;;307.30;819.20;;;;;;5033494;28;20026;-84
2021/03/06 09:00:41;;;;;;;50.22;38.70;;;307.30;819.20;;;;;;5037011;28;20033;-82
2021/03/06 09:03:14;;;;;;;15.80;9.32;;;282.40;844.80;;;;;;5041494;28;20025;-71
2021/03/06 09:05:42;;;;;;;12.85;9.10;;;282.30;844.80;;;;;;5052242;28;20025;-79
2021/03/06 09:08:08;;;;;;;23.30;17.17;;;282.30;844.80;;;;;;5042975;28;20555;-71
2021/03/06 09:10:42;;;;;;;17.10;10.80;;;282.30;819.20;;;;;;5054484;28;20017;-71
2021/03/06 09:13:15;;;;;;;24.08;11.52;;;282.30;819.20;;;;;;5054306;28;20025;-70
2021/03/06 09:15:43;;;;;;;;;;;307.30;793.60;;;;;;5054045;28;20037;-71
2021/03/06 09:18:12;;;;;;;10.73;5.63;;;282.30;793.60;;;;;;5054518;28;20361;-71
2021/03/06 09:20:44;;;;;;;14.27;6.40;;;281.60;819.20;;;;;;5054233;28;20028;-76
2021/03/06 09:23:21;;;;;;;26.35;13.73;;;256.40;819.20;;;;;;5054331;28;20025;-71
2021/03/06 09:25:47;;;;;;;73.35;38.00;;;256.00;870.40;;;;;;5054205;28;20052;-71
2021/03/06 09:28:13;;;;;;;50.40;23.10;;;231.30;921.60;;;;;;5054121;28;20078;-71
2021/03/06 09:30:41;;;;;;;7.85;4.70;;;231.30;870.40;;;;;;5053992;28;20025;-71
2021/03/06 09:33:32;;;;;;;22.70;9.02;;;231.20;844.80;;;;;;5049726;28;20100;-85
2021/03/06 09:36:02;;;;;;;7.72;3.33;;;256.00;793.60;;;;;;5042710;28;20080;-72
2021/03/06 09:38:28;;;;;;;17.10;7.82;;;256.20;768.00;;;;;;5034010;28;20100;-71
2021/03/06 09:40:55;;;;;;;99.15;57.08;;;256.30;768.00;;;;;;5033971;28;20026;-71
2021/03/06 09:43:26;;;;;;;20.88;12.43;;;256.40;793.60;;;;;;5034133;28;20413;-72
2021/03/06 09:45:53;;;;;;;8.93;5.38;;;256.00;793.60;;;;;;5033804;28;20048;-71
2021/03/06 09:48:18;;;;;;;12.07;6.45;;;231.10;793.60;;;;;;5033963;28;20097;-80
2021/03/06 09:50:46;;;;;;;13.48;7.82;;;231.20;896.00;;;;;;5034092;28;20108;-71
2021/03/06 09:53:20;;;;;;;9.10;4.78;;;231.30;921.60;;;;;;5033546;28;20073;-72
2021/03/06 09:55:47;;;;;;;6.68;3.10;;;256.00;870.40;;;;;;5033673;28;20510;-85
2021/03/06 09:58:23;;;;;;;25.20;12.23;;;256.10;870.40;;;;;;5033801;28;20047;-72
2021/03/06 10:00:50;;;;;;;32.08;14.57;;;256.00;819.20;;;;;;5036932;28;20021;-85
2021/03/06 10:03:34;;;;;;;11.85;5.90;;;256.00;768.00;;;;;;5044334;28;20017;-71
2021/03/06 10:06:06;;;;;;;9.13;5.03;;;231.30;844.80;;;;;;5051655;28;20497;-73
2021/03/06 10:08:38;;;;;;;19.13;8.13;;;231.30;844.80;;;;;;5051384;28;20033;-85
2021/03/06 10:11:04;;;;;;;12.88;5.88;;;256.10;870.40;;;;;;5049484;28;20036;-87
2021/03/06 10:13:31;;;;;;;8.23;4.85;;;256.00;844.80;;;;;;5053129;28;20021;-84
2021/03/06 10:15:59;;;;;;;7.95;4.70;;;256.10;819.20;;;;;;5050488;28;20466;-87
2021/03/06 10:18:27;;;;;;;6.20;3.50;;;256.00;819.20;;;;;;5052564;28;20515;-87
2021/03/06 10:20:54;;;;;;;8.15;4.35;;;256.10;844.80;;;;;;5053447;28;20108;-86
2021/03/06 10:23:33;;;;;;;5.40;3.35;;;256.00;819.20;;;;;;5053824;28;20029;-86
2021/03/06 10:26:23;;;;;;;5.25;3.25;;;256.10;844.80;;;;;;5052720;28;20163;-87
2021/03/06 10:28:55;;;;;;;20.35;6.82;;;256.30;793.60;;;;;;5057630;28;20028;-87
2021/03/06 10:31:38;;;;;;;26.35;13.40;;;256.20;819.20;;;;;;5057602;28;20546;-73
2021/03/06 10:34:21;;;;;;;20.67;9.73;;;231.20;844.80;;;;;;5057767;28;20044;-72
2021/03/06 10:37:06;;;;;;;13.45;6.72;;;231.10;819.20;;;;;;5053424;28;20036;-87
2021/03/06 10:39:32;;;;;;;11.95;4.90;;;231.00;819.20;;;;;;5053383;28;20025;-72
2021/03/06 10:41:59;;;;;;;18.92;9.27;;;231.00;819.20;;;;;;5046287;28;20478;-74
2021/03/06 10:44:37;;;;;;;16.08;8.35;;;231.20;844.80;;;;;;5043505;28;20057;-86
2021/03/06 10:47:03;;;;;;;11.30;5.85;;;231.20;844.80;;;;;;5041237;28;20025;-73
2021/03/06 10:49:42;;;;;;;5.93;3.58;;;231.10;844.80;;;;;;5037467;28;20085;-86
2021/03/06 10:52:31;;;;;;;16.67;7.82;;;231.20;870.40;;;;;;5037177;28;20045;-86
2021/03/06 10:54:58;;;;;;;19.65;9.75;;;256.00;870.40;;;;;;5037629;28;20116;-86
2021/03/06 10:57:26;;;;;;;29.27;9.98;;;231.30;819.20;;;;;;5037557;28;20032;-86
2021/03/06 10:59:52;;;;;;;13.38;5.90;;;231.20;819.20;;;;;;5037319;28;20547;-86
2021/03/06 11:02:28;;;;;;;7.00;4.32;;;231.10;793.60;;;;;;5039935;28;20028;-73
2021/03/06 11:04:54;;;;;;;15.18;3.00;;;231.00;844.80;;;;;;5036637;28;20075;-72
2021/03/06 11:07:28;;;;;;;8.52;4.50;;;230.90;819.20;;;;;;5036616;28;20040;-85
2021/03/06 11:09:58;;;;;;;7.32;3.10;;;230.80;742.40;;;;;;5048177;28;20025;-72
2021/03/06 11:12:31;;;;;;;7.95;3.55;;;230.90;742.40;;;;;;5056661;28;20099;-73
2021/03/06 11:15:09;;;;;;;8.32;4.22;;;231.10;768.00;;;;;;5056406;28;20040;-70
2021/03/06 11:17:35;;;;;;;5.07;3.03;;;231.30;716.80;;;;;;5056857;28;20098;-75
2021/03/06 11:20:03;;;;;;;7.72;4.05;;;256.20;742.40;;;;;;5056057;28;20512;-70
2021/03/06 11:22:29;;;;;;;17.08;6.25;;;256.30;742.40;;;;;;5055994;28;20017;-70
2021/03/06 11:24:55;;;;;;;14.35;7.80;;;256.20;716.80;;;;;;5056233;28;20139;-70
2021/03/06 11:27:21;;;;;;;11.27;6.82;;;256.00;742.40;;;;;;5055997;28;20486;-71
2021/03/06 11:29:47;;;;;;;18.90;7.47;;;256.00;742.40;;;;;;5055896;28;20398;-75
2021/03/06 11:32:13;;;;;;;13.15;5.60;;;231.20;716.80;;;;;;5043767;28;20026;-70
2021/03/06 11:34:39;;;;;;;19.27;8.45;;;230.90;716.80;;;;;;5049963;28;20055;-75
2021/03/06 11:37:04;;;;;;;7.78;4.28;;;230.90;716.80;;;;;;5054362;28;20027;-75
2021/03/06 11:39:30;;;;;;;8.95;4.30;;;231.00;768.00;;;;;;5051277;28;20075;-70
2021/03/06 11:41:56;;;;;;;11.23;4.10;;;231.20;742.40;;;;;;5052188;28;20024;-70
2021/03/06 11:44:22;;;;;;;8.23;3.78;;;256.10;742.40;;;;;;5053702;28;20056;-70
2021/03/06 11:46:48;;;;;;;8.13;4.03;;;256.10;691.20;;;;;;5054741;28;20021;-70
2021/03/06 11:49:14;;;;;;;9.30;4.03;;;256.10;716.80;;;;;;5055483;28;20448;-70
2021/03/06 11:51:40;;;;;;;5.72;2.63;;;256.00;768.00;;;;;;5055585;28;20547;-70
2021/03/06 11:54:06;;;;;;;10.95;5.05;;;231.20;768.00;;;;;;5055305;28;20060;-70
2021/03/06 11:56:33;;;;;;;13.23;5.55;;;231.00;742.40;;;;;;5055452;28;20492;-70
2021/03/06 11:58:58;;;;;;;13.10;6.15;;;230.90;768.00;;;;;;5055524;28;20024;-69
2021/03/06 12:01:24;;;;;;;8.10;4.50;;;230.80;793.60;;;;;;5055404;28;20112;-69
2021/03/06 12:03:53;;;;;;;33.40;19.63;;;230.70;793.60;;;;;;5055583;28;20048;-70
2021/03/06 12:06:19;;;;;;;53.85;26.08;;;230.60;819.20;;;;;;5055687;28;20108;-70
2021/03/06 12:08:46;;;;;;;32.38;15.40;;;230.60;870.40;;;;;;5055346;28;20061;-69
2021/03/06 12:11:12;;;;;;;43.67;19.05;;;230.70;819.20;;;;;;5055323;28;20017;-69
2021/03/06 12:13:38;;;;;;;13.48;7.63;;;230.90;793.60;;;;;;5055171;28;20421;-69
2021/03/06 12:16:05;;;;;;;25.77;10.30;;;231.10;768.00;;;;;;5055468;28;20027;-70
2021/03/06 12:18:31;;;;;;;8.27;3.70;;;256.00;768.00;;;;;;5055429;28;20033;-70
2021/03/06 12:20:56;;;;;;;6.40;3.47;;;256.10;716.80;;;;;;5055045;28;20047;-71